createdAt,value
2019-05-11T00:00:40.011Z,54.36
2019-05-11T00:03:09.028Z,54.35
2019-05-11T00:05:37.936Z,54.37
2019-05-11T00:08:06.947Z,54.36
2019-05-11T00:10:36.096Z,54.42
2019-05-11T00:13:05.029Z,54.42
2019-05-11T00:15:33.949Z,54.41
2019-05-11T00:18:05.114Z,54.43
2019-05-11T00:20:34.047Z,54.49
2019-05-11T00:23:02.987Z,54.51
2019-05-11T00:25:31.776Z,54.55
2019-05-11T00:28:00.969Z,54.49
2019-05-11T00:30:30.095Z,54.50
2019-05-11T00:32:59.037Z,54.49
2019-05-11T00:35:29.267Z,54.50
2019-05-11T00:37:57.610Z,54.52
2019-05-11T00:40:26.629Z,54.55
2019-05-11T00:42:55.597Z,54.54
2019-05-11T00:45:24.602Z,54.49
2019-05-11T00:47:53.629Z,54.45
2019-05-11T00:50:37.590Z,54.50
2019-05-11T00:52:53.238Z,54.57
2019-05-11T00:55:22.339Z,54.48
2019-05-11T00:57:51.260Z,54.54
2019-05-11T01:00:20.263Z,54.52
2019-05-11T01:02:49.321Z,54.52
2019-05-11T01:05:18.321Z,54.49
2019-05-11T01:07:47.281Z,54.46
2019-05-11T01:10:28.761Z,54.44
2019-05-11T01:12:46.760Z,54.53
2019-05-11T01:15:15.707Z,54.53
2019-05-11T01:17:44.609Z,54.54
2019-05-11T01:20:13.497Z,54.56
2019-05-11T01:22:42.442Z,54.57
2019-05-11T01:25:11.352Z,54.48
2019-05-11T01:27:40.404Z,54.52
2019-05-11T01:30:09.429Z,54.57
2019-05-11T01:32:38.455Z,54.55
2019-05-11T01:35:07.573Z,54.56
2019-05-11T01:37:36.565Z,54.57
2019-05-11T01:40:06.432Z,54.60
2019-05-11T01:42:35.460Z,54.59
2019-05-11T01:45:04.624Z,54.66
2019-05-11T01:47:33.544Z,54.66
2019-05-11T01:50:02.518Z,54.68
2019-05-11T01:52:31.584Z,54.61
2019-05-11T01:55:00.558Z,54.54
2019-05-11T01:57:29.472Z,54.59
2019-05-11T01:59:58.808Z,54.64
2019-05-11T02:02:27.628Z,54.59
2019-05-11T02:05:13.744Z,54.62
2019-05-11T02:07:42.742Z,54.57
2019-05-11T02:10:13.667Z,54.62
2019-05-11T02:12:42.351Z,54.68
2019-05-11T02:15:11.363Z,54.68
2019-05-11T02:17:40.375Z,54.66
2019-05-11T02:20:09.390Z,54.67
2019-05-11T02:22:38.388Z,54.68
2019-05-11T02:25:08.229Z,54.68
2019-05-11T02:27:37.192Z,54.71
2019-05-11T02:30:06.235Z,54.71
2019-05-11T02:32:35.746Z,54.70
2019-05-11T02:35:04.863Z,54.71
2019-05-11T02:37:33.847Z,54.68
2019-05-11T02:40:02.917Z,54.68
2019-05-11T02:42:31.862Z,54.69
2019-05-11T02:45:00.824Z,54.73
2019-05-11T02:47:29.854Z,54.73
2019-05-11T02:49:58.950Z,54.72
2019-05-11T02:52:28.104Z,54.74
2019-05-11T02:54:56.920Z,54.76
2019-05-11T02:57:25.855Z,54.72
2019-05-11T02:59:54.926Z,54.71
2019-05-11T03:02:23.824Z,54.75
2019-05-11T03:04:52.591Z,54.75
2019-05-11T03:07:21.748Z,54.74
2019-05-11T03:09:50.630Z,54.74
2019-05-11T03:12:19.484Z,54.77
2019-05-11T03:14:48.387Z,54.72
2019-05-11T03:17:21.218Z,54.81
2019-05-11T03:19:50.057Z,54.77
2019-05-11T03:22:19.013Z,54.76
2019-05-11T03:24:48.161Z,54.75
2019-05-11T03:27:17.154Z,54.82
2019-05-11T03:29:46.133Z,54.78
2019-05-11T03:32:14.991Z,54.79
2019-05-11T03:34:43.879Z,54.85
2019-05-11T03:37:12.866Z,54.82
2019-05-11T03:39:42.111Z,54.85
2019-05-11T03:42:14.513Z,54.86
2019-05-11T03:44:41.812Z,54.91
2019-05-11T03:47:10.682Z,54.94
2019-05-11T03:49:39.668Z,54.86
2019-05-11T03:52:08.582Z,54.87
2019-05-11T03:54:37.424Z,54.86
2019-05-11T03:57:06.238Z,54.83
2019-05-11T03:59:35.195Z,54.83
2019-05-11T04:02:04.184Z,54.89
2019-05-11T04:04:33.270Z,54.87
2019-05-11T04:07:02.232Z,54.88
2019-05-11T04:09:31.256Z,54.86
2019-05-11T04:12:00.283Z,54.88
2019-05-11T04:14:29.288Z,54.87
2019-05-11T04:16:58.284Z,54.87
2019-05-11T04:19:27.327Z,54.88
2019-05-11T04:21:56.309Z,54.90
2019-05-11T04:24:25.225Z,54.88
2019-05-11T04:26:54.251Z,54.89
2019-05-11T04:29:23.134Z,54.92
2019-05-11T04:31:52.059Z,54.91
2019-05-11T04:34:20.922Z,54.93
2019-05-11T04:36:49.912Z,54.96
2019-05-11T04:39:18.893Z,54.91
2019-05-11T04:41:48.139Z,54.91
2019-05-11T04:44:17.210Z,54.89
2019-05-11T04:46:46.173Z,54.97
2019-05-11T04:49:15.148Z,54.91
2019-05-11T04:51:44.167Z,54.91
2019-05-11T04:54:13.036Z,54.91
2019-05-11T04:56:41.917Z,54.95
2019-05-11T04:59:10.923Z,54.91
2019-05-11T05:01:39.965Z,54.88
2019-05-11T05:04:13.981Z,54.90
2019-05-11T05:06:39.638Z,54.94
2019-05-11T05:09:08.618Z,54.95
2019-05-11T05:11:38.519Z,55.01
2019-05-11T05:14:08.669Z,55.02
2019-05-11T05:16:38.452Z,55.03
2019-05-11T05:19:07.605Z,55.08
2019-05-11T05:21:36.641Z,55.09
2019-05-11T05:24:05.573Z,55.09
2019-05-11T05:26:34.621Z,55.07
2019-05-11T05:29:03.659Z,55.07
2019-05-11T05:31:32.789Z,55.13
2019-05-11T05:34:01.775Z,55.10
2019-05-11T05:36:30.738Z,55.01
2019-05-11T05:38:59.707Z,55.08
2019-05-11T05:41:28.793Z,55.09
2019-05-11T05:43:58.711Z,55.05
2019-05-11T05:46:28.707Z,55.09
2019-05-11T05:48:57.764Z,55.13
2019-05-11T05:51:26.786Z,55.16
2019-05-11T05:53:55.888Z,55.17
2019-05-11T05:56:24.868Z,55.22
2019-05-11T05:58:53.882Z,55.25
2019-05-11T06:01:22.952Z,55.27
2019-05-11T06:03:51.896Z,55.32
2019-05-11T06:06:20.942Z,55.41
2019-05-11T06:08:49.823Z,55.45
2019-05-11T06:11:18.832Z,55.42
2019-05-11T06:13:47.989Z,55.42
2019-05-11T06:16:16.904Z,55.41
2019-05-11T06:18:45.884Z,55.45
2019-05-11T06:21:14.878Z,55.43
2019-05-11T06:23:43.849Z,55.33
2019-05-11T06:26:12.946Z,55.36
2019-05-11T06:28:41.930Z,55.40
2019-05-11T06:31:11.010Z,55.48
2019-05-11T06:33:39.985Z,55.50
2019-05-11T06:36:09.034Z,55.56
2019-05-11T06:38:37.907Z,55.64
2019-05-11T06:41:07.040Z,55.63
2019-05-11T06:43:36.039Z,55.58
2019-05-11T06:46:05.030Z,55.61
2019-05-11T06:48:34.292Z,55.59
2019-05-11T06:51:03.224Z,55.65
2019-05-11T06:53:32.091Z,55.69
2019-05-11T06:56:01.201Z,55.72
2019-05-11T06:58:30.180Z,55.74
2019-05-11T07:01:00.251Z,55.77
2019-05-11T07:03:30.424Z,55.83
2019-05-11T07:05:59.279Z,55.91
2019-05-11T07:08:28.234Z,55.85
2019-05-11T07:10:57.096Z,55.89
2019-05-11T07:13:26.315Z,55.92
2019-05-11T07:15:55.250Z,55.95
2019-05-11T07:18:24.300Z,56.06
2019-05-11T07:20:53.233Z,55.96
2019-05-11T07:23:22.247Z,56.03
2019-05-11T07:25:51.327Z,56.06
2019-05-11T07:28:20.287Z,56.06
2019-05-11T07:30:49.302Z,56.06
2019-05-11T07:33:18.431Z,56.14
2019-05-11T07:35:47.926Z,56.11
2019-05-11T07:38:18.410Z,56.06
2019-05-11T07:40:47.719Z,56.07
2019-05-11T07:43:18.817Z,56.14
2019-05-11T07:45:48.007Z,56.12
2019-05-11T07:48:18.588Z,56.17
2019-05-11T07:50:48.097Z,56.20
2019-05-11T07:53:18.598Z,56.12
2019-05-11T07:55:48.518Z,56.17
2019-05-11T07:58:20.418Z,56.21
2019-05-11T08:00:48.860Z,56.23
2019-05-11T08:03:18.203Z,56.24
2019-05-11T08:05:47.849Z,56.22
2019-05-11T08:08:18.100Z,56.26
2019-05-11T08:10:48.304Z,56.28
2019-05-11T08:13:17.909Z,56.24
2019-05-11T08:15:48.881Z,56.30
2019-05-11T08:18:18.925Z,56.25
2019-05-11T08:20:47.890Z,56.30
2019-05-11T08:23:18.077Z,56.26
2019-05-11T08:25:48.614Z,56.38
2019-05-11T08:28:18.325Z,56.36
2019-05-11T08:30:48.647Z,56.32
2019-05-11T08:33:18.305Z,56.25
2019-05-11T08:35:48.133Z,56.30
2019-05-11T08:38:18.727Z,56.29
2019-05-11T08:40:48.482Z,56.35
2019-05-11T08:43:18.056Z,56.35
2019-05-11T08:45:48.556Z,56.41
2019-05-11T08:48:18.740Z,56.25
2019-05-11T08:50:48.833Z,56.12
2019-05-11T08:53:17.886Z,56.06
2019-05-11T08:55:48.556Z,56.00
2019-05-11T08:58:19.511Z,56.00
2019-05-11T09:00:49.624Z,56.08
2019-05-11T09:03:18.421Z,56.08
2019-05-11T09:05:48.557Z,55.97
2019-05-11T09:08:18.774Z,55.97
2019-05-11T09:10:49.061Z,55.89
2019-05-11T09:13:18.515Z,55.98
2019-05-11T09:15:48.462Z,55.97
2019-05-11T09:18:18.785Z,55.94
2019-05-11T09:20:48.833Z,55.93
2019-05-11T09:23:32.976Z,55.91
2019-05-11T09:25:48.661Z,55.94
2019-05-11T09:28:18.244Z,55.89
2019-05-11T09:30:48.323Z,55.90
2019-05-11T09:33:20.495Z,55.92
2019-05-11T09:35:53.000Z,55.88
2019-05-11T09:38:18.896Z,55.67
2019-05-11T09:40:48.075Z,55.73
2019-05-11T09:43:17.809Z,55.84
2019-05-11T09:45:50.428Z,55.71
2019-05-11T09:48:18.154Z,55.47
2019-05-11T09:50:48.106Z,55.63
2019-05-11T09:53:17.830Z,55.63
2019-05-11T09:55:48.137Z,55.47
2019-05-11T09:58:19.699Z,55.34
2019-05-11T10:00:48.196Z,55.41
2019-05-11T10:03:18.667Z,55.43
2019-05-11T10:05:48.672Z,55.28
2019-05-11T10:08:18.291Z,55.12
2019-05-11T10:10:48.803Z,54.83
2019-05-11T10:13:18.566Z,54.95
2019-05-11T10:16:02.993Z,54.95
2019-05-11T10:18:18.682Z,54.93
2019-05-11T10:20:48.249Z,54.74
2019-05-11T10:23:18.585Z,54.83
2019-05-11T10:25:48.076Z,54.74
2019-05-11T10:28:17.902Z,54.74
2019-05-11T10:30:48.777Z,54.76
2019-05-11T10:33:18.858Z,54.72
2019-05-11T10:35:48.413Z,54.78
2019-05-11T10:38:18.194Z,54.75
2019-05-11T10:40:48.040Z,54.83
2019-05-11T10:43:18.331Z,54.83
2019-05-11T10:45:48.324Z,54.71
2019-05-11T10:48:17.908Z,54.61
2019-05-11T10:50:48.381Z,54.59
2019-05-11T10:53:18.479Z,54.73
2019-05-11T10:55:48.017Z,54.63
2019-05-11T10:58:18.370Z,54.58
2019-05-11T11:00:48.094Z,54.53
2019-05-11T11:03:17.990Z,54.58
2019-05-11T11:05:48.821Z,54.52
2019-05-11T11:08:18.547Z,54.54
2019-05-11T11:10:48.377Z,54.50
2019-05-11T11:13:18.815Z,54.44
2019-05-11T11:15:48.581Z,54.56
2019-05-11T11:18:18.812Z,54.59
2019-05-11T11:20:48.870Z,54.54
2019-05-11T11:23:17.999Z,54.50
2019-05-11T11:25:48.104Z,54.53
2019-05-11T11:28:17.534Z,54.42
2019-05-11T11:30:48.026Z,54.51
2019-05-11T11:33:18.212Z,54.50
2019-05-11T11:35:47.730Z,54.58
2019-05-11T11:38:18.105Z,54.52
2019-05-11T11:40:48.127Z,54.59
2019-05-11T11:43:18.057Z,54.49
2019-05-11T11:45:48.440Z,54.46
2019-05-11T11:48:18.890Z,54.43
2019-05-11T11:50:48.105Z,54.48
2019-05-11T11:53:18.799Z,54.39
2019-05-11T11:55:48.310Z,54.61
2019-05-11T11:58:22.669Z,54.54
2019-05-11T12:00:48.298Z,54.60
2019-05-11T12:03:18.518Z,54.44
2019-05-11T12:05:47.925Z,54.41
2019-05-11T12:08:18.751Z,54.49
2019-05-11T12:10:48.423Z,54.52
2019-05-11T12:13:18.716Z,54.40
2019-05-11T12:15:48.371Z,54.42
2019-05-11T12:18:18.473Z,54.44
2019-05-11T12:20:48.096Z,54.48
2019-05-11T12:23:18.012Z,54.49
2019-05-11T12:25:48.688Z,54.49
2019-05-11T12:28:18.447Z,54.64
2019-05-11T12:30:48.238Z,54.75
2019-05-11T12:33:18.732Z,54.63
2019-05-11T12:35:48.216Z,54.73
2019-05-11T12:38:18.337Z,54.76
2019-05-11T12:41:08.822Z,55.04
2019-05-11T12:43:38.195Z,55.01
2019-05-11T12:46:08.200Z,55.01
2019-05-11T12:48:37.913Z,55.21
2019-05-11T12:51:08.058Z,55.18
2019-05-11T12:53:38.527Z,55.23
2019-05-11T12:56:08.382Z,55.11
2019-05-11T12:58:39.418Z,55.09
2019-05-11T13:01:08.913Z,55.08
2019-05-11T13:03:38.598Z,55.08
2019-05-11T13:06:08.213Z,55.20
2019-05-11T13:08:38.890Z,55.23
2019-05-11T13:11:08.247Z,55.34
2019-05-11T13:13:37.782Z,55.25
2019-05-11T13:16:08.726Z,55.28
2019-05-11T13:18:38.548Z,55.31
2019-05-11T13:21:07.859Z,55.27
2019-05-11T13:23:38.254Z,55.34
2019-05-11T13:26:08.779Z,55.28
2019-05-11T13:28:37.963Z,55.31
2019-05-11T13:31:08.311Z,55.35
2019-05-11T13:33:38.470Z,55.36
2019-05-11T13:36:08.928Z,55.30
2019-05-11T13:38:38.849Z,55.36
2019-05-11T13:41:08.094Z,55.44
2019-05-11T13:43:38.610Z,55.49
2019-05-11T13:46:08.738Z,55.58
2019-05-11T13:48:38.646Z,55.60
2019-05-11T13:51:08.759Z,55.62
2019-05-11T13:53:38.226Z,55.63
2019-05-11T13:56:08.034Z,55.65
2019-05-11T13:58:38.126Z,55.62
2019-05-11T14:01:08.037Z,55.66
2019-05-11T14:03:37.813Z,55.71
2019-05-11T14:06:08.762Z,55.68
2019-05-11T14:08:38.380Z,55.71
2019-05-11T14:11:08.579Z,55.78
2019-05-11T14:13:38.626Z,55.78
2019-05-11T14:16:08.092Z,55.79
2019-05-11T14:18:38.664Z,55.76
2019-05-11T14:21:08.108Z,55.75
2019-05-11T14:23:38.855Z,55.81
2019-05-11T14:28:38.472Z,55.81
2019-05-11T14:31:08.230Z,55.83
2019-05-11T14:32:21.410Z,55.84
2019-05-11T14:33:38.606Z,55.85
2019-05-11T14:36:08.647Z,55.85
2019-05-11T14:38:38.255Z,55.92
2019-05-11T14:41:07.831Z,55.88
2019-05-11T14:43:38.337Z,55.83
2019-05-11T14:46:13.532Z,55.90
2019-05-11T14:48:42.575Z,55.95
2019-05-11T14:51:11.462Z,55.92
2019-05-11T14:53:40.619Z,55.94
2019-05-11T14:56:09.484Z,55.93
2019-05-11T14:58:38.805Z,55.97
2019-05-11T15:01:08.805Z,55.97
2019-05-11T15:03:37.986Z,55.95
2019-05-11T15:06:08.294Z,55.94
2019-05-11T15:08:38.692Z,55.95
2019-05-11T15:11:08.330Z,55.95
2019-05-11T15:13:38.207Z,55.90
2019-05-11T15:16:08.191Z,55.88
2019-05-11T15:18:41.823Z,55.95
2019-05-11T15:21:08.392Z,55.96
2019-05-11T15:23:37.926Z,55.90
2019-05-11T15:26:09.862Z,55.91
2019-05-11T15:28:38.068Z,55.84
2019-05-11T15:31:08.041Z,55.81
2019-05-11T15:33:38.265Z,55.76
2019-05-11T15:36:07.789Z,55.80
2019-05-11T15:38:37.900Z,55.72
2019-05-11T15:41:08.389Z,55.66
2019-05-11T15:43:38.783Z,55.67
2019-05-11T15:46:07.793Z,55.68
2019-05-11T15:48:53.487Z,55.70
2019-05-11T15:51:08.113Z,55.67
2019-05-11T15:53:37.327Z,55.61
2019-05-11T15:56:08.436Z,55.65
2019-05-11T15:58:38.210Z,55.69
2019-05-11T16:01:08.058Z,55.68
2019-05-11T16:03:37.002Z,55.67
2019-05-11T16:06:07.900Z,55.68
2019-05-11T16:08:37.648Z,55.66
2019-05-11T16:11:08.302Z,55.68
2019-05-11T16:13:37.933Z,55.68
2019-05-11T16:16:06.992Z,55.72
2019-05-11T16:18:35.975Z,55.73
2019-05-11T16:21:05.018Z,55.68
2019-05-11T16:23:34.218Z,55.69
2019-05-11T16:26:03.063Z,55.68
2019-05-11T16:28:32.387Z,55.65
2019-05-11T16:31:01.505Z,55.66
2019-05-11T16:33:51.151Z,55.63
2019-05-11T16:36:20.120Z,55.64
2019-05-11T16:38:48.999Z,55.63
2019-05-11T16:41:20.925Z,55.61
2019-05-11T16:43:51.121Z,55.65
2019-05-11T16:46:20.138Z,55.61
2019-05-11T16:48:49.171Z,55.57
2019-05-11T16:51:18.106Z,55.61
2019-05-11T16:53:48.065Z,55.58
2019-05-11T16:56:19.497Z,55.57
2019-05-11T16:58:48.471Z,55.59
2019-05-11T17:01:18.823Z,55.61
2019-05-11T17:03:48.239Z,55.56
2019-05-11T17:06:19.548Z,55.54
2019-05-11T17:08:48.732Z,55.47
2019-05-11T17:11:18.600Z,55.30
2019-05-11T17:13:48.460Z,55.11
2019-05-11T17:16:18.063Z,54.95
2019-05-11T17:18:48.417Z,54.88
2019-05-11T17:21:18.296Z,54.87
2019-05-11T17:23:48.738Z,54.72
2019-05-11T17:26:18.972Z,54.71
2019-05-11T17:28:48.963Z,54.58
2019-05-11T17:31:19.001Z,54.52
2019-05-11T17:33:48.132Z,54.60
2019-05-11T17:36:18.655Z,54.54
2019-05-11T17:38:48.045Z,54.55
2019-05-11T17:41:17.282Z,54.50
2019-05-11T17:43:48.009Z,54.55
2019-05-11T17:46:18.412Z,54.53
2019-05-11T17:48:47.884Z,54.42
2019-05-11T17:51:21.850Z,54.45
2019-05-11T17:53:48.205Z,54.52
2019-05-11T17:56:17.174Z,54.45
2019-05-11T17:58:48.331Z,54.09
2019-05-11T18:01:18.641Z,53.88
2019-05-11T18:03:47.561Z,53.74
2019-05-11T18:06:18.413Z,53.76
2019-05-11T18:08:47.965Z,53.78
2019-05-11T18:11:18.514Z,53.54
2019-05-11T18:13:48.193Z,53.70
2019-05-11T18:16:18.688Z,53.91
2019-05-11T18:18:48.326Z,53.96
2019-05-11T18:21:18.848Z,53.96
2019-05-11T18:23:48.206Z,54.01
2019-05-11T18:26:18.685Z,53.95
2019-05-11T18:28:48.207Z,53.95
2019-05-11T18:31:18.143Z,53.78
2019-05-11T18:33:48.716Z,53.81
2019-05-11T18:36:18.415Z,53.66
2019-05-11T18:38:48.727Z,53.65
2019-05-11T18:41:17.211Z,53.61
2019-05-11T18:43:48.291Z,53.66
2019-05-11T18:46:16.811Z,53.53
2019-05-11T18:48:45.689Z,53.49
2019-05-11T18:51:14.568Z,53.15
2019-05-11T18:53:43.478Z,53.20
2019-05-11T18:56:12.806Z,53.17
2019-05-11T18:58:41.898Z,53.32
2019-05-11T19:01:10.931Z,53.35
2019-05-11T19:03:39.820Z,53.29
2019-05-11T19:06:09.066Z,53.25
2019-05-11T19:08:38.480Z,53.21
2019-05-11T19:11:09.244Z,53.23
2019-05-11T19:13:38.774Z,53.16
2019-05-11T19:16:08.584Z,53.17
2019-05-11T19:18:38.719Z,53.16
2019-05-11T19:21:09.220Z,53.07
2019-05-11T19:23:38.374Z,53.13
2019-05-11T19:26:08.383Z,53.02
2019-05-11T19:28:38.484Z,52.94
2019-05-11T19:31:08.306Z,52.93
2019-05-11T19:33:38.316Z,53.03
2019-05-11T19:36:07.940Z,53.00
2019-05-11T19:38:38.400Z,52.86
2019-05-11T19:41:08.076Z,52.95
2019-05-11T19:43:38.182Z,52.98
2019-05-11T19:46:08.906Z,52.95
2019-05-11T19:48:38.534Z,53.03
2019-05-11T19:51:11.344Z,52.96
2019-05-11T19:53:38.681Z,52.82
2019-05-11T19:56:07.966Z,52.79
2019-05-11T19:58:38.078Z,52.60
2019-05-11T20:01:08.698Z,52.71
2019-05-11T20:03:37.828Z,52.67
2019-05-11T20:06:08.764Z,52.71
2019-05-11T20:08:37.911Z,52.80
2019-05-11T20:11:08.283Z,52.72
2019-05-11T20:13:38.815Z,52.75
2019-05-11T20:16:08.380Z,52.51
2019-05-11T20:18:37.287Z,52.60
2019-05-11T20:21:16.583Z,52.58
2019-05-11T20:23:37.988Z,52.55
2019-05-11T20:26:08.885Z,52.48
2019-05-11T20:28:37.990Z,52.50
2019-05-11T20:31:08.065Z,52.46
2019-05-11T20:33:38.577Z,52.49
2019-05-11T20:36:08.651Z,52.53
2019-05-11T20:38:38.382Z,52.37
2019-05-11T20:41:08.347Z,52.37
2019-05-11T20:43:37.412Z,52.34
2019-05-11T20:46:08.222Z,52.52
2019-05-11T20:48:38.214Z,52.46
2019-05-11T20:51:08.140Z,52.46
2019-05-11T20:53:38.782Z,52.44
2019-05-11T20:56:08.533Z,52.44
2019-05-11T20:58:55.415Z,52.36
2019-05-11T21:01:24.925Z,52.26
2019-05-11T21:03:53.924Z,52.26
2019-05-11T21:06:23.027Z,52.31
2019-05-11T21:08:52.168Z,52.21
2019-05-11T21:11:21.508Z,52.27
2019-05-11T21:13:50.540Z,52.22
2019-05-11T21:16:19.497Z,52.15
2019-05-11T21:18:48.520Z,52.12
2019-05-11T21:21:17.555Z,52.25
2019-05-11T21:23:48.741Z,52.11
2019-05-11T21:26:18.868Z,52.05
2019-05-11T21:28:48.717Z,52.05
2019-05-11T21:31:18.544Z,52.07
2019-05-11T21:33:47.714Z,52.00
2019-05-11T21:36:17.967Z,51.98
2019-05-11T21:38:48.182Z,51.90
2019-05-11T21:41:16.658Z,51.92
2019-05-11T21:43:45.671Z,51.84
2019-05-11T21:46:14.675Z,51.84
2019-05-11T21:48:43.675Z,51.74
2019-05-11T21:51:12.797Z,51.82
2019-05-11T21:53:41.697Z,51.75
2019-05-11T21:56:10.722Z,51.77
2019-05-11T21:58:39.807Z,51.68
2019-05-11T22:01:08.736Z,51.65
2019-05-11T22:03:38.308Z,51.58
2019-05-11T22:06:08.627Z,51.58
2019-05-11T22:08:36.923Z,51.49
2019-05-11T22:11:05.871Z,51.54
2019-05-11T22:13:34.731Z,51.55
2019-05-11T22:16:03.850Z,51.54
2019-05-11T22:18:32.961Z,51.66
2019-05-11T22:21:01.916Z,51.51
2019-05-11T22:23:30.910Z,51.55
2019-05-11T22:25:59.812Z,51.47
2019-05-11T22:28:29.133Z,51.38
2019-05-11T22:30:58.010Z,51.45
2019-05-11T22:33:28.379Z,51.37
2019-05-11T22:35:58.757Z,51.35
2019-05-11T22:38:30.074Z,51.26
2019-05-11T22:40:58.448Z,51.31
2019-05-11T22:43:28.543Z,51.31
2019-05-11T22:45:58.207Z,51.19
2019-05-11T22:48:27.117Z,51.16
2019-05-11T22:50:58.498Z,51.20
2019-05-11T22:53:43.415Z,51.21
2019-05-11T22:55:57.311Z,51.25
2019-05-11T22:58:26.112Z,51.14
2019-05-11T23:00:54.995Z,51.07
2019-05-11T23:03:24.083Z,50.97
2019-05-11T23:05:53.337Z,50.98
2019-05-11T23:08:22.151Z,51.06
2019-05-11T23:10:54.199Z,51.04
2019-05-11T23:13:23.131Z,50.97
2019-05-11T23:15:52.209Z,50.92
2019-05-11T23:18:21.159Z,50.91
2019-05-11T23:20:50.228Z,50.91
2019-05-11T23:23:19.342Z,50.95
2019-05-11T23:25:48.375Z,50.93
2019-05-11T23:28:18.446Z,50.90
2019-05-11T23:30:47.783Z,50.75
2019-05-11T23:33:18.435Z,50.77
2019-05-11T23:35:48.540Z,50.73
2019-05-11T23:38:17.750Z,50.75
2019-05-11T23:40:48.157Z,50.79
2019-05-11T23:43:19.205Z,50.69
2019-05-11T23:45:48.054Z,50.72
2019-05-11T23:48:16.915Z,50.75
2019-05-11T23:50:45.820Z,50.57
2019-05-11T23:53:14.930Z,50.61
2019-05-11T23:55:43.838Z,50.61
2019-05-11T23:58:12.846Z,50.58
